CheckWX is a tool to help pilots better visualize weather data.  It is not intended as a substitute for an official pre-flight weather briefing.

08:20:10 UTC

VTSM METAR
Samui Airport
Na Thon (Ko Samui Island), Thailand
Current

20 mins ago

VTSM 150800Z 28009KT 240V310 9999 -RA FEW018 28/23 Q1008 NOSIG
Observed
Sep-15 @ 08:00 UTC
Wind
  • 280° at 9 KTS
Visibility
10,000+ meters
Flight Rules
VFR
Conditions
Light Rain
Cloud Levels
  • Few at 1,800' AGL
Temperature
28°C / 82°F
Dewpoint
23°C / 73°F
Heat Index
31°C / 87°F
Humidity
74%
Altimeter
29.76" Hg
Pressure
1007.92 hPa
Previous

50 mins ago

VTSM 150730Z 27011KT 240V300 9999 -RA FEW018 28/23 Q1008 NOSIG
Observed
Sep-15 @ 07:30 UTC
Wind
  • 270° at 11 KTS
Visibility
10,000+ meters
Flight Rules
VFR
Conditions
Light Rain
Cloud Levels
  • Few at 1,800' AGL
Temperature
28°C / 82°F
Dewpoint
23°C / 73°F
Heat Index
31°C / 87°F
Humidity
74%
Altimeter
29.76" Hg
Pressure
1007.92 hPa
Previous

1 hour ago

VTSM 150700Z 29009KT 9000 -RA FEW020 29/23 Q1008 NOSIG
Observed
Sep-15 @ 07:00 UTC
Wind
  • 290° at 9 KTS
Visibility
9,000 meters
Flight Rules
VFR
Conditions
Light Rain
Cloud Levels
  • Few at 2,000' AGL
Temperature
29°C / 84°F
Dewpoint
23°C / 73°F
Heat Index
32°C / 90°F
Humidity
70%
Altimeter
29.76" Hg
Pressure
1007.92 hPa